Time;durP1;ratioP1;P1;durP2;ratioP2;P2;SDS_P1;SDS_P2;PMS_P1;PMS_P2;Temp;Humidity;BMP_temperature;BMP_pressure;BME280_temperature;BME280_humidity;BME280_pressure;Samples;Min_cycle;Max_cycle;Signal;HPM_P1;HPM_P2
2024/02/04 00:00:30;;;;;;;5.32;4.10;;;4.30;68.20;;;;;;5092653;28;20040;-73
2024/02/04 00:02:56;;;;;;;8.25;3.58;;;4.20;68.40;;;;;;5075216;28;20063;-73
2024/02/04 00:05:22;;;;;;;6.55;3.60;;;4.30;68.70;;;;;;5091960;28;20044;-72
2024/02/04 00:07:48;;;;;;;8.98;5.15;;;4.20;68.60;;;;;;5093055;28;20455;-72
2024/02/04 00:10:17;;;;;;;3.78;1.90;;;4.20;68.50;;;;;;5091261;28;20036;-72
2024/02/04 00:12:43;;;;;;;8.82;3.90;;;4.20;68.50;;;;;;5092184;28;20385;-73
2024/02/04 00:15:09;;;;;;;6.18;3.47;;;4.30;68.50;;;;;;5092406;28;20481;-73
2024/02/04 00:17:36;;;;;;;;;;;4.20;67.80;;;;;;5093568;28;20048;-73
2024/02/04 00:20:05;;;;;;;7.60;5.47;;;4.20;67.70;;;;;;5091550;28;19919;-72
2024/02/04 00:22:33;;;;;;;8.10;4.32;;;4.20;68.10;;;;;;5074494;28;20573;-73
2024/02/04 00:25:04;;;;;;;12.05;5.65;;;4.20;68.20;;;;;;5091831;28;20507;-73
2024/02/04 00:27:32;;;;;;;13.63;6.32;;;4.30;68.60;;;;;;5093220;28;20435;-72
2024/02/04 00:29:58;;;;;;;11.43;6.28;;;4.20;68.30;;;;;;5091826;28;20071;-72
2024/02/04 00:32:25;;;;;;;5.60;3.33;;;4.20;68.50;;;;;;5091514;28;20033;-73
2024/02/04 00:34:52;;;;;;;8.55;4.15;;;4.20;68.40;;;;;;5093772;28;20036;-73
2024/02/04 00:37:19;;;;;;;12.00;4.53;;;4.20;68.20;;;;;;5093214;28;20397;-73
2024/02/04 00:39:45;;;;;;;11.27;4.47;;;4.20;68.30;;;;;;5091807;28;20062;-73
2024/02/04 00:42:11;;;;;;;9.57;6.32;;;4.20;67.90;;;;;;5092552;28;20036;-72
2024/02/04 00:44:37;;;;;;;11.80;5.03;;;4.20;68.50;;;;;;5093285;28;20032;-73
2024/02/04 00:47:03;;;;;;;8.18;5.15;;;4.20;68.50;;;;;;5091853;28;20065;-73
2024/02/04 00:49:29;;;;;;;5.93;3.65;;;4.20;68.50;;;;;;5091754;28;20036;-72
2024/02/04 00:51:55;;;;;;;10.23;6.07;;;4.20;68.50;;;;;;5092546;28;20044;-72
2024/02/04 00:54:21;;;;;;;7.53;4.45;;;4.20;68.70;;;;;;5091952;28;20396;-73
2024/02/04 00:56:47;;;;;;;10.30;5.10;;;4.10;68.60;;;;;;5092056;28;20404;-73
2024/02/04 00:59:14;;;;;;;6.25;4.40;;;4.20;68.50;;;;;;5092880;28;20036;-73
2024/02/04 01:01:39;;;;;;;;;;;4.10;68.40;;;;;;5074019;28;20401;-72
2024/02/04 01:04:05;;;;;;;7.85;5.30;;;4.20;68.20;;;;;;5092998;28;20022;-73
2024/02/04 01:06:31;;;;;;;5.82;3.38;;;4.10;68.20;;;;;;5092916;28;20637;-73
2024/02/04 01:08:57;;;;;;;10.60;5.68;;;4.10;68.50;;;;;;5092185;28;20044;-73
2024/02/04 01:11:24;;;;;;;5.32;3.35;;;4.10;68.40;;;;;;5090420;28;20413;-73
2024/02/04 01:13:50;;;;;;;;;;;4.10;68.40;;;;;;5075283;28;20119;-72
2024/02/04 01:16:16;;;;;;;3.70;2.28;;;4.10;68.40;;;;;;5091057;28;20436;-74
2024/02/04 01:18:42;;;;;;;5.95;2.42;;;4.10;68.50;;;;;;5091202;28;20122;-72
2024/02/04 01:21:09;;;;;;;6.10;3.92;;;4.10;68.80;;;;;;5091477;28;20416;-73
2024/02/04 01:23:35;;;;;;;5.85;2.90;;;4.10;68.80;;;;;;5091226;28;20435;-73
2024/02/04 01:26:01;;;;;;;6.60;3.78;;;4.00;68.80;;;;;;5092315;28;20040;-72
2024/02/04 01:28:27;;;;;;;5.07;2.95;;;4.00;68.80;;;;;;5091264;28;20047;-72
2024/02/04 01:30:53;;;;;;;7.20;4.43;;;4.00;68.80;;;;;;5090397;28;20047;-72
2024/02/04 01:33:19;;;;;;;4.38;3.33;;;4.00;68.60;;;;;;5092140;28;20036;-72
2024/02/04 01:35:45;;;;;;;5.50;3.72;;;4.00;68.70;;;;;;5090870;28;20047;-72
2024/02/04 01:38:11;;;;;;;6.10;3.72;;;4.00;68.80;;;;;;5074167;28;20024;-72
2024/02/04 01:40:37;;;;;;;5.78;2.92;;;4.00;68.70;;;;;;5085959;28;20085;-73
2024/02/04 01:43:03;;;;;;;9.25;3.63;;;4.00;68.70;;;;;;5090053;28;20032;-72
2024/02/04 01:45:29;;;;;;;4.20;2.55;;;4.00;69.10;;;;;;5090374;28;20153;-72
2024/02/04 01:47:55;;;;;;;5.95;3.13;;;4.00;69.20;;;;;;5090569;28;20042;-73
2024/02/04 01:50:22;;;;;;;3.30;2.22;;;4.00;69.20;;;;;;5088938;28;20061;-73
2024/02/04 01:52:49;;;;;;;3.95;2.13;;;4.00;69.30;;;;;;5090459;28;20032;-72
2024/02/04 01:55:15;;;;;;;8.32;2.47;;;4.00;69.30;;;;;;5090153;28;20496;-73
2024/02/04 01:57:41;;;;;;;7.50;4.25;;;4.00;69.30;;;;;;5091560;28;20274;-73
2024/02/04 02:00:09;;;;;;;;;;;4.00;69.10;;;;;;5091638;28;20067;-73
2024/02/04 02:02:40;;;;;;;3.28;2.10;;;4.00;68.90;;;;;;5089961;28;19958;-70
2024/02/04 02:05:08;;;;;;;5.53;2.67;;;4.00;68.80;;;;;;5073253;28;20040;-71
2024/02/04 02:07:34;;;;;;;9.88;3.53;;;4.00;69.00;;;;;;5073385;28;20500;-73
2024/02/04 02:10:00;;;;;;;7.10;3.35;;;4.00;69.00;;;;;;5090092;28;20445;-73
2024/02/04 02:12:48;;;;;;;4.25;2.17;;;4.00;69.90;;;;;;5091149;28;20485;-73
2024/02/04 02:15:21;;;;;;;8.98;3.75;;;4.00;69.00;;;;;;5078014;28;20224;-72
2024/02/04 02:18:26;;;;;;;6.38;2.58;;;4.00;68.80;;;;;;5094748;28;20058;-73
2024/02/04 02:21:48;;;;;;;5.70;1.98;;;4.00;68.80;;;;;;5093952;28;20044;-72
2024/02/04 02:24:23;;;;;;;3.88;2.33;;;4.00;69.00;;;;;;5095934;28;20083;-72
2024/02/04 02:26:53;;;;;;;6.20;3.28;;;3.90;69.20;;;;;;5096210;28;20499;-73
2024/02/04 02:29:19;;;;;;;4.40;3.35;;;3.90;68.70;;;;;;5094584;28;20092;-72
2024/02/04 02:31:46;;;;;;;4.45;3.03;;;3.90;69.20;;;;;;5095109;28;20043;-72
2024/02/04 02:34:12;;;;;;;6.82;6.10;;;3.80;68.90;;;;;;5077635;28;20036;-73
2024/02/04 02:37:16;;;;;;;;;;;3.80;68.40;;;;;;5095208;28;20032;-73
2024/02/04 02:40:38;;;;;;;5.38;2.97;;;3.80;69.00;;;;;;5095602;28;19945;-72
2024/02/04 02:43:06;;;;;;;12.82;5.43;;;3.70;69.10;;;;;;5095168;28;20044;-73
2024/02/04 02:45:34;;;;;;;7.03;2.88;;;3.70;68.60;;;;;;5094147;28;20036;-72
2024/02/04 02:48:01;;;;;;;5.45;3.63;;;3.60;69.00;;;;;;5077311;28;20036;-73
2024/02/04 02:50:27;;;;;;;7.80;4.60;;;3.60;69.30;;;;;;5093449;28;20043;-72
2024/02/04 02:52:53;;;;;;;8.48;4.60;;;3.60;69.20;;;;;;5076480;28;20104;-73
2024/02/04 02:55:19;;;;;;;7.40;2.35;;;3.60;69.30;;;;;;5094843;28;20492;-72
2024/02/04 02:57:45;;;;;;;6.28;3.22;;;3.50;69.50;;;;;;5093421;28;20538;-73
2024/02/04 03:00:12;;;;;;;6.72;4.50;;;3.50;69.60;;;;;;5092722;28;20024;-72
2024/02/04 03:02:38;;;;;;;7.80;4.97;;;3.40;69.60;;;;;;5093798;28;20027;-72
2024/02/04 03:05:05;;;;;;;13.02;4.10;;;3.40;69.90;;;;;;5095186;28;20028;-73
2024/02/04 03:07:31;;;;;;;5.95;3.67;;;3.40;69.40;;;;;;5095155;28;20040;-73
2024/02/04 03:09:57;;;;;;;11.38;5.00;;;3.40;69.90;;;;;;5093637;28;20117;-72
2024/02/04 03:12:23;;;;;;;6.10;3.55;;;3.30;70.10;;;;;;5094156;28;20036;-72
2024/02/04 03:14:49;;;;;;;8.82;3.38;;;3.30;70.00;;;;;;5093117;28;20106;-74
2024/02/04 03:17:20;;;;;;;11.98;4.35;;;3.20;69.90;;;;;;5094021;28;20111;-73
2024/02/04 03:19:47;;;;;;;5.07;2.90;;;3.20;69.90;;;;;;5094120;28;20485;-73
2024/02/04 03:22:14;;;;;;;8.77;3.25;;;3.10;69.90;;;;;;5092310;28;20622;-73
2024/02/04 03:24:39;;;;;;;;;;;3.10;70.20;;;;;;5093214;28;20404;-74
2024/02/04 03:27:05;;;;;;;7.32;5.25;;;3.10;70.10;;;;;;5094365;28;19973;-73
2024/02/04 03:29:31;;;;;;;4.78;2.25;;;3.00;69.90;;;;;;5092601;28;20063;-73
2024/02/04 03:31:58;;;;;;;12.02;4.70;;;3.10;69.90;;;;;;5092049;28;20036;-73
2024/02/04 03:34:24;;;;;;;6.75;4.68;;;3.10;70.00;;;;;;5093082;28;20382;-72
2024/02/04 03:36:50;;;;;;;11.65;6.05;;;3.00;70.30;;;;;;5092684;28;20081;-73
2024/02/04 03:39:16;;;;;;;4.60;2.72;;;3.00;70.70;;;;;;5075544;28;20055;-73
2024/02/04 03:41:42;;;;;;;7.18;4.57;;;2.90;70.60;;;;;;5093128;28;20458;-72
2024/02/04 03:44:08;;;;;;;15.60;4.97;;;2.80;70.70;;;;;;5093707;28;20039;-72
2024/02/04 03:46:34;;;;;;;9.65;4.95;;;2.80;70.50;;;;;;5093970;28;20040;-72
2024/02/04 03:49:00;;;;;;;11.48;5.18;;;2.80;70.90;;;;;;5092456;28;20040;-72
2024/02/04 03:51:26;;;;;;;6.50;4.03;;;2.80;71.00;;;;;;5092324;28;20089;-72
2024/02/04 03:53:52;;;;;;;10.05;4.90;;;2.80;71.70;;;;;;5094365;28;20174;-71
2024/02/04 03:56:18;;;;;;;10.20;4.70;;;2.80;70.80;;;;;;5092976;28;20047;-72
2024/02/04 03:58:44;;;;;;;5.50;3.53;;;2.80;71.00;;;;;;5093974;28;20036;-72
2024/02/04 04:01:11;;;;;;;;;;;2.80;70.80;;;;;;5092673;28;20504;-73
2024/02/04 04:03:57;;;;;;;8.80;6.72;;;2.80;70.40;;;;;;5076165;28;19912;-72
2024/02/04 04:06:23;;;;;;;5.68;3.42;;;2.80;70.50;;;;;;5094391;28;20081;-73
2024/02/04 04:08:50;;;;;;;12.02;5.72;;;2.80;70.50;;;;;;5093778;28;20105;-73
2024/02/04 04:11:16;;;;;;;11.38;4.95;;;2.80;70.50;;;;;;5091548;28;20047;-72
2024/02/04 04:13:42;;;;;;;7.53;5.00;;;2.80;70.60;;;;;;5092631;28;20041;-72
2024/02/04 04:16:08;;;;;;;7.93;5.75;;;2.80;70.70;;;;;;5092208;28;20046;-72
2024/02/04 04:18:34;;;;;;;;;;;2.70;70.70;;;;;;5094054;28;20108;-72
2024/02/04 04:21:00;;;;;;;8.48;5.22;;;2.80;70.70;;;;;;5091023;28;20002;-73
2024/02/04 04:23:27;;;;;;;9.43;6.00;;;2.70;70.20;;;;;;5092248;28;20409;-72
2024/02/04 04:25:53;;;;;;;13.82;7.22;;;2.70;71.00;;;;;;5093813;28;20118;-73
2024/02/04 04:28:19;;;;;;;9.23;6.85;;;2.70;71.10;;;;;;5092802;28;20044;-71
2024/02/04 04:30:45;;;;;;;11.75;6.65;;;2.70;71.20;;;;;;5090834;28;20089;-73
2024/02/04 04:33:12;;;;;;;16.25;7.18;;;2.70;71.30;;;;;;5091521;28;20069;-72
2024/02/04 04:35:38;;;;;;;9.18;7.03;;;2.70;71.30;;;;;;5092987;28;20109;-72
2024/02/04 04:38:04;;;;;;;7.80;5.90;;;2.70;71.30;;;;;;5091839;28;20039;-73
2024/02/04 04:40:31;;;;;;;12.13;7.60;;;2.70;71.20;;;;;;5073712;28;20040;-73
2024/02/04 04:42:57;;;;;;;11.80;5.80;;;2.70;71.10;;;;;;5089567;28;20032;-73
2024/02/04 04:45:23;;;;;;;11.40;7.15;;;2.70;71.10;;;;;;5091993;28;20082;-72
2024/02/04 04:47:49;;;;;;;12.60;6.00;;;2.60;71.20;;;;;;5090950;28;20036;-72
2024/02/04 04:50:15;;;;;;;8.77;6.40;;;2.60;71.00;;;;;;5091621;28;20430;-73
2024/02/04 04:52:41;;;;;;;8.82;6.32;;;2.60;71.00;;;;;;5090172;28;20085;-72
2024/02/04 04:55:08;;;;;;;19.15;8.23;;;2.60;71.10;;;;;;5092346;28;20055;-72
2024/02/04 04:57:34;;;;;;;6.35;4.90;;;2.50;71.20;;;;;;5092428;28;20095;-72
2024/02/04 05:00:06;;;;;;;9.65;6.07;;;2.50;71.30;;;;;;5092942;28;20480;-73
2024/02/04 05:02:33;;;;;;;13.80;5.82;;;2.50;71.20;;;;;;5091052;28;20044;-73
2024/02/04 05:04:59;;;;;;;12.15;6.25;;;2.40;70.90;;;;;;5074521;28;20042;-72
2024/02/04 05:07:25;;;;;;;9.65;5.22;;;2.40;71.00;;;;;;5091403;28;20515;-72
2024/02/04 05:09:51;;;;;;;14.60;6.82;;;2.30;71.10;;;;;;5074521;28;20104;-72
2024/02/04 05:12:18;;;;;;;11.30;7.30;;;2.30;71.20;;;;;;5090566;28;20509;-72
2024/02/04 05:14:44;;;;;;;10.60;6.90;;;2.30;71.20;;;;;;5092090;28;20028;-73
2024/02/04 05:17:10;;;;;;;8.63;5.47;;;2.20;71.00;;;;;;5090920;28;20475;-74
2024/02/04 05:19:36;;;;;;;8.00;4.80;;;2.10;71.00;;;;;;5090376;28;20073;-73
2024/02/04 05:22:03;;;;;;;15.43;4.90;;;2.10;71.10;;;;;;5091576;28;20036;-73
2024/02/04 05:24:29;;;;;;;15.70;8.82;;;2.10;71.10;;;;;;5091739;28;20404;-73
2024/02/04 05:26:55;;;;;;;7.72;4.55;;;2.00;71.20;;;;;;5091776;28;20040;-73
2024/02/04 05:29:21;;;;;;;7.30;4.18;;;1.90;71.30;;;;;;5090341;28;20085;-73
2024/02/04 05:31:47;;;;;;;8.23;4.75;;;1.80;71.10;;;;;;5091125;28;20079;-74
2024/02/04 05:34:13;;;;;;;15.40;6.32;;;1.70;71.30;;;;;;5090529;28;20489;-72
2024/02/04 05:36:41;;;;;;;11.57;6.72;;;1.60;71.10;;;;;;5090459;28;20062;-72
2024/02/04 05:39:25;;;;;;;5.60;4.28;;;1.60;72.40;;;;;;5091431;28;20082;-72
2024/02/04 05:41:52;;;;;;;8.60;4.95;;;1.60;72.50;;;;;;5089534;28;20505;-73
2024/02/04 05:44:18;;;;;;;9.90;4.47;;;1.60;72.50;;;;;;5091418;28;20111;-73
2024/02/04 05:46:44;;;;;;;12.20;8.38;;;1.50;72.70;;;;;;5091150;28;20065;-73
2024/02/04 05:49:10;;;;;;;14.35;7.00;;;1.50;72.60;;;;;;5090224;28;20046;-73
2024/02/04 05:51:55;;;;;;;20.38;8.07;;;1.50;72.80;;;;;;5089552;28;20048;-73
2024/02/04 05:54:21;;;;;;;7.68;4.13;;;1.50;74.90;;;;;;5073376;28;20032;-72
2024/02/04 05:56:48;;;;;;;14.80;8.20;;;1.40;75.70;;;;;;5090086;28;20040;-73
2024/02/04 05:59:15;;;;;;;17.13;7.97;;;1.50;76.70;;;;;;5089914;28;20036;-73
2024/02/04 06:01:42;;;;;;;10.15;6.82;;;1.50;77.40;;;;;;5072338;28;20039;-72
2024/02/04 06:04:08;;;;;;;6.72;5.15;;;1.60;77.40;;;;;;5089897;28;20086;-73
2024/02/04 06:06:34;;;;;;;15.15;7.28;;;1.60;77.20;;;;;;5090062;28;20044;-73
2024/02/04 06:09:01;;;;;;;12.63;5.07;;;1.60;77.30;;;;;;5091138;28;20054;-72
2024/02/04 06:11:27;;;;;;;7.82;5.03;;;1.60;77.70;;;;;;5072437;28;20064;-73
2024/02/04 06:13:53;;;;;;;7.82;5.25;;;1.70;78.30;;;;;;5090044;28;20035;-73
2024/02/04 06:16:19;;;;;;;6.72;4.05;;;1.70;78.40;;;;;;5089725;28;20036;-74
2024/02/04 06:18:45;;;;;;;7.32;4.88;;;1.80;78.40;;;;;;5072856;28;20070;-73
2024/02/04 06:21:12;;;;;;;7.60;6.18;;;1.90;78.30;;;;;;5090475;28;20074;-73
2024/02/04 06:23:39;;;;;;;8.30;5.90;;;1.90;78.20;;;;;;5089739;28;20044;-73
2024/02/04 06:26:05;;;;;;;12.00;7.97;;;2.00;77.90;;;;;;5089715;28;20089;-74
2024/02/04 06:28:31;;;;;;;10.00;5.65;;;2.00;77.80;;;;;;5089682;28;20032;-73
2024/02/04 06:30:58;;;;;;;8.65;4.43;;;2.10;77.80;;;;;;5088769;28;20206;-73
2024/02/04 06:33:24;;;;;;;;;;;2.10;77.40;;;;;;5090446;28;20020;-73
2024/02/04 06:35:51;;;;;;;6.53;3.73;;;2.10;77.20;;;;;;5089863;28;20297;-72
2024/02/04 06:38:17;;;;;;;9.05;5.38;;;2.20;76.70;;;;;;5091477;28;20036;-73
2024/02/04 06:40:43;;;;;;;11.07;7.00;;;2.20;76.70;;;;;;5088860;28;20129;-73
2024/02/04 06:43:09;;;;;;;13.45;6.93;;;2.30;76.80;;;;;;5091177;28;20025;-73
2024/02/04 06:45:35;;;;;;;17.67;8.02;;;2.20;76.70;;;;;;5089559;28;20220;-72
2024/02/04 06:48:02;;;;;;;10.25;7.05;;;2.30;76.40;;;;;;5090671;28;20028;-73
2024/02/04 06:50:28;;;;;;;9.70;5.13;;;2.40;76.10;;;;;;5072088;28;20079;-73
2024/02/04 06:52:54;;;;;;;12.63;6.38;;;2.50;75.80;;;;;;5089736;28;20160;-73
2024/02/04 06:55:20;;;;;;;10.32;5.28;;;2.40;75.70;;;;;;5089582;28;20040;-73
2024/02/04 06:57:46;;;;;;;9.35;5.60;;;2.50;75.80;;;;;;5091146;28;20036;-73
2024/02/04 07:00:15;;;;;;;8.27;6.65;;;2.50;75.80;;;;;;5089874;28;20051;-72
2024/02/04 07:02:41;;;;;;;10.32;4.57;;;2.50;75.00;;;;;;5093401;28;20020;-73
2024/02/04 07:05:07;;;;;;;21.52;7.80;;;2.50;75.30;;;;;;5094665;28;20503;-73
2024/02/04 07:07:33;;;;;;;8.68;4.65;;;2.50;75.10;;;;;;5093004;28;20045;-72
2024/02/04 07:10:00;;;;;;;9.13;3.88;;;2.60;74.90;;;;;;5076277;28;20040;-73
2024/02/04 07:12:26;;;;;;;8.98;5.55;;;2.70;74.60;;;;;;5075531;28;20024;-73
2024/02/04 07:14:52;;;;;;;9.63;5.90;;;2.80;74.40;;;;;;5094664;28;20451;-72
2024/02/04 07:17:18;;;;;;;13.23;6.75;;;2.80;74.40;;;;;;5093996;28;20039;-73
2024/02/04 07:19:44;;;;;;;10.98;5.75;;;2.80;74.40;;;;;;5093121;28;20310;-73
2024/02/04 07:22:10;;;;;;;5.93;4.30;;;2.80;74.20;;;;;;5092361;28;20036;-73
2024/02/04 07:24:36;;;;;;;6.55;3.58;;;2.90;74.00;;;;;;5094032;28;20047;-72
2024/02/04 07:27:02;;;;;;;;;;;3.00;73.80;;;;;;5076202;28;20044;-73
2024/02/04 07:29:28;;;;;;;12.52;6.35;;;3.10;73.60;;;;;;5075694;28;19912;-73
2024/02/04 07:31:55;;;;;;;8.77;5.18;;;3.10;73.20;;;;;;5092001;28;20098;-72
2024/02/04 07:34:21;;;;;;;12.90;5.47;;;3.30;73.00;;;;;;5092763;28;20463;-73
2024/02/04 07:36:47;;;;;;;10.32;8.63;;;3.40;72.40;;;;;;5091870;28;20139;-73
2024/02/04 07:39:13;;;;;;;13.25;6.43;;;3.60;72.10;;;;;;5093726;28;20373;-72
2024/02/04 07:41:39;;;;;;;11.02;5.72;;;3.70;72.20;;;;;;5092817;28;20092;-73
2024/02/04 07:44:05;;;;;;;9.75;6.80;;;3.90;71.80;;;;;;5073560;28;20028;-72
2024/02/04 07:46:31;;;;;;;15.15;8.70;;;4.10;71.50;;;;;;5091495;28;20089;-73
2024/02/04 07:48:57;;;;;;;13.85;7.97;;;4.20;71.10;;;;;;5091736;28;20042;-72
2024/02/04 07:51:23;;;;;;;17.25;9.20;;;4.40;70.90;;;;;;5091711;28;20044;-73
2024/02/04 07:53:49;;;;;;;;;;;4.50;70.70;;;;;;5075040;28;20039;-73
2024/02/04 07:56:15;;;;;;;9.77;6.90;;;4.70;70.90;;;;;;5093779;28;19923;-72
2024/02/04 07:58:41;;;;;;;;;;;4.70;70.60;;;;;;5093862;28;20035;-73
2024/02/04 08:01:08;;;;;;;8.40;6.07;;;4.80;70.90;;;;;;5091340;28;19920;-73
2024/02/04 08:03:35;;;;;;;11.18;7.55;;;4.70;70.20;;;;;;5092101;28;20039;-73
2024/02/04 08:06:02;;;;;;;;;;;4.70;70.30;;;;;;5094016;28;20028;-73
2024/02/04 08:08:28;;;;;;;16.45;7.53;;;4.70;70.60;;;;;;5092241;28;20011;-73
2024/02/04 08:10:55;;;;;;;7.05;5.70;;;4.70;70.30;;;;;;5074140;28;20481;-72
2024/02/04 08:13:21;;;;;;;11.38;7.07;;;4.80;70.00;;;;;;5093308;28;20042;-73
2024/02/04 08:15:47;;;;;;;12.40;8.07;;;4.80;69.80;;;;;;5093578;28;20298;-73
2024/02/04 08:18:13;;;;;;;9.98;6.22;;;5.00;69.60;;;;;;5091818;28;20493;-72
2024/02/04 08:20:39;;;;;;;16.90;6.78;;;5.00;69.60;;;;;;5091015;28;20035;-73
2024/02/04 08:23:05;;;;;;;17.42;9.30;;;5.10;69.60;;;;;;5093059;28;20028;-73
2024/02/04 08:25:31;;;;;;;12.82;9.50;;;5.20;69.70;;;;;;5093111;28;20048;-73
2024/02/04 08:27:58;;;;;;;10.23;7.63;;;5.30;69.50;;;;;;5093010;28;20033;-72
2024/02/04 08:30:24;;;;;;;15.35;7.50;;;5.50;68.90;;;;;;5085511;28;20151;-73
2024/02/04 08:32:50;;;;;;;8.25;4.63;;;5.80;68.40;;;;;;5071445;28;20095;-71
2024/02/04 08:35:16;;;;;;;19.38;7.85;;;6.00;67.90;;;;;;5071234;28;20070;-71
2024/02/04 08:37:42;;;;;;;6.70;3.95;;;6.10;68.70;;;;;;5072706;28;20051;-71
2024/02/04 08:40:10;;;;;;;7.72;5.05;;;6.10;67.30;;;;;;5072025;28;20044;-71
2024/02/04 08:42:36;;;;;;;8.93;5.57;;;6.20;66.90;;;;;;5071963;28;20028;-71
2024/02/04 08:45:03;;;;;;;13.20;4.30;;;6.40;66.70;;;;;;5071257;28;20036;-71
2024/02/04 08:47:29;;;;;;;6.32;4.28;;;6.60;65.50;;;;;;5071993;28;20124;-71
2024/02/04 08:49:55;;;;;;;8.65;3.75;;;6.70;65.70;;;;;;5071093;28;20037;-71
2024/02/04 08:52:21;;;;;;;5.90;3.78;;;6.90;65.60;;;;;;5069917;28;20086;-71
2024/02/04 08:54:47;;;;;;;;;;;7.10;64.70;;;;;;5070457;28;20106;-71
2024/02/04 08:57:14;;;;;;;8.45;6.43;;;7.30;64.80;;;;;;5069947;28;20636;-71
2024/02/04 08:59:40;;;;;;;15.43;9.40;;;7.40;63.70;;;;;;5070342;28;20032;-71
2024/02/04 09:02:06;;;;;;;12.23;6.97;;;7.40;63.30;;;;;;5069753;28;20032;-71
2024/02/04 09:04:32;;;;;;;9.73;3.17;;;7.50;63.20;;;;;;5070672;28;20059;-71
2024/02/04 09:06:58;;;;;;;;;;;7.70;62.60;;;;;;5070981;28;20138;-72
2024/02/04 09:09:24;;;;;;;15.05;6.00;;;7.70;62.60;;;;;;5053944;28;19912;-71
2024/02/04 09:11:50;;;;;;;6.53;4.03;;;7.70;62.50;;;;;;5070800;28;20413;-71
2024/02/04 09:14:16;;;;;;;;;;;7.80;62.10;;;;;;5071103;28;20028;-71
2024/02/04 09:16:42;;;;;;;9.23;5.35;;;8.00;62.10;;;;;;5070568;28;19920;-71
2024/02/04 09:19:09;;;;;;;11.18;4.68;;;8.10;61.00;;;;;;5070259;28;20024;-72
2024/02/04 09:21:35;;;;;;;10.73;5.40;;;8.10;60.70;;;;;;5069450;28;20098;-71
2024/02/04 09:24:01;;;;;;;10.18;4.07;;;8.20;60.80;;;;;;5080516;28;20657;-71
2024/02/04 09:26:27;;;;;;;4.35;3.92;;;8.40;60.60;;;;;;5071695;28;20032;-73
2024/02/04 09:28:53;;;;;;;3.50;1.95;;;8.50;59.90;;;;;;5068444;28;20028;-73
2024/02/04 09:31:19;;;;;;;4.00;2.53;;;8.60;59.50;;;;;;5081622;28;20040;-73
2024/02/04 09:33:45;;;;;;;4.80;3.30;;;8.60;59.30;;;;;;5072128;28;20420;-73
2024/02/04 09:36:11;;;;;;;8.48;4.63;;;8.70;58.70;;;;;;5070113;28;20044;-74
2024/02/04 09:38:37;;;;;;;7.95;4.22;;;8.80;59.60;;;;;;5067431;28;20233;-71
2024/02/04 09:41:04;;;;;;;7.95;6.00;;;9.00;58.60;;;;;;5059944;28;20096;-71
2024/02/04 09:43:32;;;;;;;5.75;3.65;;;9.60;57.40;;;;;;5078969;28;20031;-73
2024/02/04 09:46:00;;;;;;;7.30;3.95;;;10.70;54.10;;;;;;5070989;28;20068;-71
2024/02/04 09:48:32;;;;;;;2.50;1.63;;;10.80;53.60;;;;;;5069745;28;20035;-72
2024/02/04 09:50:58;;;;;;;7.03;3.15;;;10.80;54.20;;;;;;5068898;28;20045;-71
2024/02/04 09:53:45;;;;;;;4.15;2.10;;;11.00;53.80;;;;;;5075512;28;20039;-71
2024/02/04 09:56:12;;;;;;;3.50;2.13;;;11.40;52.10;;;;;;5073699;28;20029;-71
2024/02/04 09:58:38;;;;;;;10.40;2.25;;;11.30;51.40;;;;;;5078461;28;20456;-71
2024/02/04 10:01:04;;;;;;;;;;;11.20;52.30;;;;;;5090858;28;20348;-72
2024/02/04 10:03:31;;;;;;;5.43;3.70;;;11.20;52.00;;;;;;5079276;28;20389;-71
2024/02/04 10:05:57;;;;;;;8.98;4.63;;;11.00;51.70;;;;;;5086891;28;20070;-71
2024/02/04 10:08:23;;;;;;;3.97;2.83;;;10.90;52.20;;;;;;5089913;28;20540;-71
2024/02/04 10:10:49;;;;;;;;;;;10.90;52.90;;;;;;5089813;28;20145;-71
2024/02/04 10:13:15;;;;;;;1.77;1.67;;;11.00;51.90;;;;;;5072873;28;20400;-71
2024/02/04 10:15:42;;;;;;;8.55;3.20;;;10.90;51.00;;;;;;5089690;28;20035;-71
2024/02/04 10:18:08;;;;;;;4.13;2.17;;;11.10;51.40;;;;;;5089622;28;20111;-70
2024/02/04 10:20:35;;;;;;;8.65;2.65;;;11.30;51.00;;;;;;5090586;28;20506;-71
2024/02/04 10:23:01;;;;;;;6.93;5.82;;;11.40;51.70;;;;;;5073056;28;20085;-70
2024/02/04 10:25:27;;;;;;;2.80;1.60;;;11.40;50.80;;;;;;5089235;28;20052;-71
2024/02/04 10:27:53;;;;;;;;;;;11.50;50.90;;;;;;5091687;28;20111;-71
2024/02/04 10:30:21;;;;;;;18.40;2.42;;;11.50;49.80;;;;;;5088939;28;19919;-71
2024/02/04 10:32:50;;;;;;;3.10;2.22;;;12.20;48.30;;;;;;5090770;28;20032;-71
2024/02/04 10:38:03;;;;;;;18.65;6.82;;;12.40;47.80;;;;;;5095143;28;20044;-72
2024/02/04 10:40:29;;;;;;;;;;;12.20;47.60;;;;;;5093746;28;20074;-71
2024/02/04 10:43:00;;;;;;;6.15;4.15;;;12.50;48.10;;;;;;5095013;28;20372;-70
2024/02/04 10:45:30;;;;;;;5.75;4.47;;;12.50;47.90;;;;;;5093626;28;20039;-71
2024/02/04 10:48:00;;;;;;;5.05;3.42;;;13.10;45.50;;;;;;5093194;28;20044;-71
2024/02/04 10:50:29;;;;;;;4.03;1.90;;;14.60;41.80;;;;;;5092939;28;20076;-70
2024/02/04 10:53:20;;;;;;;4.85;2.35;;;15.40;39.80;;;;;;5077119;28;20101;-70
2024/02/04 10:55:49;;;;;;;2.83;1.63;;;14.80;40.60;;;;;;5094587;28;20036;-71
2024/02/04 10:58:16;;;;;;;5.72;4.07;;;15.60;39.90;;;;;;5094605;28;20044;-71
2024/02/04 11:00:45;;;;;;;5.97;3.75;;;16.00;38.00;;;;;;5092713;28;20540;-71
2024/02/04 11:03:15;;;;;;;3.03;2.35;;;16.70;36.90;;;;;;5093381;28;20429;-71
2024/02/04 11:05:43;;;;;;;14.38;3.92;;;16.90;36.70;;;;;;5093236;28;20428;-72
2024/02/04 11:08:12;;;;;;;6.50;4.00;;;16.80;36.90;;;;;;5085868;28;20041;-70
2024/02/04 11:10:40;;;;;;;4.65;2.83;;;17.00;36.30;;;;;;5072160;28;20090;-71
2024/02/04 11:13:09;;;;;;;8.05;2.92;;;17.50;36.60;;;;;;5072658;28;20025;-71
2024/02/04 11:15:37;;;;;;;1.58;1.48;;;17.90;34.50;;;;;;5072791;28;20032;-71
2024/02/04 11:18:39;;;;;;;4.63;3.20;;;17.90;34.00;;;;;;5074075;28;20496;-71
2024/02/04 11:21:43;;;;;;;3.22;2.17;;;17.80;33.70;;;;;;5071714;28;20049;-71
2024/02/04 11:24:45;;;;;;;10.48;2.08;;;18.60;32.60;;;;;;5080081;28;20090;-71
2024/02/04 11:27:12;;;;;;;8.30;2.28;;;18.80;32.00;;;;;;5093939;28;20111;-71
2024/02/04 11:29:39;;;;;;;1.75;1.27;;;18.90;32.50;;;;;;5075813;28;20020;-72
2024/02/04 11:32:06;;;;;;;2.35;1.27;;;20.10;29.80;;;;;;5092162;28;20032;-71
2024/02/04 11:34:33;;;;;;;5.00;2.85;;;20.60;28.20;;;;;;5092926;28;20028;-71
2024/02/04 11:37:00;;;;;;;3.03;2.25;;;21.00;27.70;;;;;;5075544;28;20239;-71
2024/02/04 11:39:27;;;;;;;3.33;1.60;;;20.50;29.20;;;;;;5091823;28;20762;-72
2024/02/04 11:41:53;;;;;;;7.75;3.90;;;19.30;29.90;;;;;;5078398;28;20272;-71
2024/02/04 11:44:38;;;;;;;6.32;3.97;;;18.80;30.60;;;;;;5073335;28;20077;-72
2024/02/04 11:47:04;;;;;;;3.58;2.05;;;18.40;29.90;;;;;;5075810;28;20032;-72
2024/02/04 11:49:30;;;;;;;4.15;2.85;;;18.10;31.30;;;;;;5092307;28;20070;-72
2024/02/04 11:51:56;;;;;;;;;;;17.80;32.60;;;;;;5073921;28;20028;-70
2024/02/04 11:54:22;;;;;;;3.25;1.90;;;17.60;31.40;;;;;;5072984;28;19926;-72
2024/02/04 11:59:35;;;;;;;7.43;2.80;;;17.20;31.00;;;;;;5080916;28;19946;-72
2024/02/04 12:02:06;;;;;;;2.15;1.27;;;16.90;32.30;;;;;;5079691;28;20497;-72
2024/02/04 12:04:32;;;;;;;3.05;1.33;;;16.80;32.30;;;;;;5083792;28;20442;-71
2024/02/04 12:06:58;;;;;;;2.42;1.35;;;17.70;31.50;;;;;;5081755;28;20504;-72
2024/02/04 12:09:26;;;;;;;1.02;0.80;;;18.50;29.00;;;;;;5081487;28;20111;-71
2024/02/04 12:11:54;;;;;;;4.32;2.50;;;17.80;30.40;;;;;;5081767;28;20044;-72
2024/02/04 12:14:21;;;;;;;0.85;0.47;;;17.40;32.20;;;;;;5089318;28;20024;-71
2024/02/04 12:16:47;;;;;;;4.65;2.35;;;17.20;32.70;;;;;;5091639;28;20050;-73
2024/02/04 12:19:14;;;;;;;3.05;1.67;;;17.20;32.90;;;;;;5089498;28;20359;-71
2024/02/04 12:21:40;;;;;;;3.83;2.50;;;17.30;32.20;;;;;;5072228;28;20043;-72
2024/02/04 12:24:06;;;;;;;;;;;17.10;32.50;;;;;;5090001;28;20043;-72
2024/02/04 12:26:32;;;;;;;2.65;1.25;;;17.40;33.00;;;;;;5091572;28;19965;-71
2024/02/04 12:28:59;;;;;;;2.22;1.02;;;17.90;32.20;;;;;;5091339;28;20103;-71
2024/02/04 12:31:31;;;;;;;3.75;1.63;;;18.40;31.00;;;;;;5091913;28;20448;-71
2024/02/04 12:34:00;;;;;;;9.40;4.50;;;18.10;31.90;;;;;;5090959;28;20026;-71
2024/02/04 12:36:46;;;;;;;4.78;2.58;;;18.40;30.60;;;;;;5091584;28;20129;-72
2024/02/04 12:39:13;;;;;;;6.28;2.65;;;19.10;30.20;;;;;;5084714;28;20218;-71
2024/02/04 12:41:40;;;;;;;3.25;2.28;;;19.80;29.40;;;;;;5053354;28;20043;-70
2024/02/04 12:44:06;;;;;;;7.40;4.00;;;20.10;28.70;;;;;;5071061;28;20028;-71
2024/02/04 12:46:32;;;;;;;2.75;1.58;;;21.30;28.10;;;;;;5072727;28;20052;-71
2024/02/04 12:48:59;;;;;;;2.53;1.95;;;22.10;26.00;;;;;;5076108;28;20032;-71
2024/02/04 12:51:25;;;;;;;3.70;2.20;;;22.20;25.60;;;;;;5091802;28;20063;-71
2024/02/04 12:54:20;;;;;;;4.15;1.55;;;22.20;25.90;;;;;;5091203;28;20051;-71
2024/02/04 12:56:48;;;;;;;4.80;3.03;;;23.20;25.20;;;;;;5090968;28;20142;-71
2024/02/04 13:02:18;;;;;;;7.22;2.15;;;22.10;25.00;;;;;;5090630;28;20054;-71
2024/02/04 13:04:44;;;;;;;5.60;2.15;;;22.30;25.50;;;;;;5091104;28;20508;-71
2024/02/04 13:07:18;;;;;;;;;;;23.50;24.80;;;;;;5092363;28;20029;-71
2024/02/04 13:09:45;;;;;;;4.93;3.47;;;24.70;23.10;;;;;;5090993;28;20332;-71